Time;durP1;ratioP1;P1;durP2;ratioP2;P2;SDS_P1;SDS_P2;PMS_P1;PMS_P2;Temp;Humidity;BMP_temperature;BMP_pressure;BME280_temperature;BME280_humidity;BME280_pressure;Samples;Min_cycle;Max_cycle;Signal;HPM_P1;HPM_P2
2022/10/31 00:00:58;;;;;;;14.63;8.52;;;;;;;14.04;82.12;100339.16;1087596;54;20034;-79
2022/10/31 00:02:00;;;;;;;16.13;7.97;;;;;;;14.03;81.99;100342.84;1087614;54;20034;-79
2022/10/31 00:03:04;;;;;;;16.48;8.00;;;;;;;14.01;82.08;100354.78;1087611;54;20038;-79
2022/10/31 00:04:06;;;;;;;16.98;8.75;;;;;;;14.01;82.36;100344.03;1087677;54;20039;-80
2022/10/31 00:05:10;;;;;;;12.85;8.60;;;;;;;13.98;82.43;100347.06;1087538;54;20034;-78
2022/10/31 00:06:15;;;;;;;18.83;8.45;;;;;;;14.01;81.99;100341.34;1087659;54;20039;-78
2022/10/31 00:07:19;;;;;;;10.80;7.45;;;;;;;13.99;82.04;100344.19;1087608;54;20037;-79
2022/10/31 00:08:20;;;;;;;12.05;8.07;;;;;;;13.99;81.96;100335.25;1087694;54;20030;-79
2022/10/31 00:09:24;;;;;;;18.60;8.00;;;;;;;13.97;81.88;100340.81;1087621;54;20034;-79
2022/10/31 00:10:26;;;;;;;13.18;7.85;;;;;;;13.95;82.13;100339.28;1087547;54;20057;-78
2022/10/31 00:11:30;;;;;;;12.80;8.38;;;;;;;13.91;81.89;100333.41;1087652;54;21102;-80
2022/10/31 00:12:32;;;;;;;12.75;7.93;;;;;;;13.89;82.12;100336.22;1087980;46;20038;-79
2022/10/31 00:13:36;;;;;;;12.45;8.18;;;;;;;13.91;81.97;100340.59;1087555;54;20046;-79
2022/10/31 00:14:38;;;;;;;16.45;7.82;;;;;;;13.89;82.07;100333.53;1087632;54;20045;-80
2022/10/31 00:15:43;;;;;;;11.48;7.80;;;;;;;13.85;81.92;100334.88;1087450;54;20041;-79
2022/10/31 00:16:44;;;;;;;13.27;7.90;;;;;;;13.85;82.02;100336.72;1087706;54;20331;-78
2022/10/31 00:17:48;;;;;;;13.63;8.57;;;;;;;13.85;81.95;100334.88;1087564;54;20032;-78
2022/10/31 00:18:51;;;;;;;14.10;8.15;;;;;;;13.82;82.10;100331.66;1087459;54;20034;-79
2022/10/31 00:19:55;;;;;;;13.52;7.72;;;;;;;13.80;81.99;100331.81;1087630;54;20030;-78
2022/10/31 00:21:00;;;;;;;11.88;8.05;;;;;;;13.77;82.44;100332.16;1087570;54;20061;-79
2022/10/31 00:22:07;;;;;;;11.93;7.95;;;;;;;13.77;82.34;100332.16;1088512;46;20059;-79
2022/10/31 00:23:10;;;;;;;14.18;7.95;;;;;;;13.75;82.11;100331.47;1087515;54;20038;-79
2022/10/31 00:24:14;;;;;;;11.57;7.45;;;;;;;13.75;82.42;100333.28;1087596;54;20034;-78
2022/10/31 00:25:16;;;;;;;17.15;8.38;;;;;;;13.75;82.27;100333.28;1087624;54;20049;-79
2022/10/31 00:26:21;;;;;;;12.40;7.90;;;;;;;13.75;82.31;100333.28;1087570;54;20121;-79
2022/10/31 00:27:23;;;;;;;13.85;8.52;;;;;;;13.68;82.50;100328.56;1088152;46;20035;-79
2022/10/31 00:28:27;;;;;;;13.13;7.88;;;;;;;13.72;82.18;100331.75;1087620;54;20034;-79
2022/10/31 00:29:28;;;;;;;12.88;7.88;;;;;;;13.70;82.50;100336.44;1087639;54;20038;-79
2022/10/31 00:30:33;;;;;;;11.48;7.60;;;;;;;13.68;82.47;100333.09;1087608;54;20033;-79
2022/10/31 00:31:34;;;;;;;11.77;7.88;;;;;;;13.67;82.25;100337.59;1087639;54;20034;-78
2022/10/31 00:32:38;;;;;;;11.40;7.45;;;;;;;13.68;82.21;100333.09;1087449;54;20042;-80
2022/10/31 00:33:41;;;;;;;11.25;6.80;;;;;;;13.66;82.20;100335.09;1087585;54;20053;-78
2022/10/31 00:34:45;;;;;;;10.85;7.43;;;;;;;13.67;82.20;100336.78;1087640;54;20030;-77
2022/10/31 00:35:49;;;;;;;10.45;7.30;;;;;;;13.66;82.36;100335.91;1087583;54;20038;-78
2022/10/31 00:36:54;;;;;;;9.60;7.00;;;;;;;13.68;82.18;100333.09;1087578;54;20034;-79
2022/10/31 00:37:58;;;;;;;11.85;6.68;;;;;;;13.70;82.06;100336.44;1087519;54;20059;-78
2022/10/31 00:39:02;;;;;;;10.88;7.15;;;;;;;13.69;82.09;100329.41;1087683;54;20796;-79
2022/10/31 00:40:05;;;;;;;10.18;6.80;;;;;;;13.72;82.21;100327.25;1087647;54;20065;-79
2022/10/31 00:41:16;;;;;;;12.73;7.40;;;;;;;13.64;81.95;100334.41;1087744;54;20034;-78
2022/10/31 00:42:18;;;;;;;9.93;7.00;;;;;;;13.62;82.18;100339.09;1087683;54;20065;-78
2022/10/31 00:43:22;;;;;;;11.52;7.45;;;;;;;13.63;82.39;100333.56;1087625;54;20038;-79
2022/10/31 00:44:23;;;;;;;11.82;7.70;;;;;;;13.60;82.03;100339.25;1090479;46;20034;-78
2022/10/31 00:45:29;;;;;;;13.57;8.48;;;;;;;13.49;82.49;100345.72;1087752;54;20776;-78
2022/10/31 00:46:31;;;;;;;15.30;9.35;;;;;;;13.41;83.05;100341.13;1087623;54;20039;-78
2022/10/31 00:47:35;;;;;;;14.93;9.10;;;;;;;13.38;83.20;100337.88;1087533;54;20030;-78
2022/10/31 00:48:37;;;;;;;13.95;9.73;;;;;;;13.34;83.21;100347.25;1087617;54;20034;-77
2022/10/31 00:49:41;;;;;;;15.73;10.18;;;;;;;13.17;83.71;100340.91;1087596;54;20030;-80
2022/10/31 00:50:42;;;;;;;21.15;11.52;;;;;;;13.02;84.25;100343.28;1087560;54;20046;-79
2022/10/31 00:51:46;;;;;;;20.10;11.98;;;;;;;12.88;84.97;100337.44;1087627;54;20034;-79
2022/10/31 00:52:48;;;;;;;16.02;11.15;;;;;;;12.80;85.56;100338.19;1087575;54;20042;-80
2022/10/31 00:53:55;;;;;;;17.38;11.32;;;;;;;12.73;86.08;100338.97;1087443;54;20800;-80
2022/10/31 00:54:56;;;;;;;19.90;11.57;;;;;;;12.63;86.63;100337.22;1090200;39;20697;-78
2022/10/31 00:56:00;;;;;;;19.60;11.85;;;;;;;12.61;86.67;100338.38;1087622;54;20037;-80
2022/10/31 00:57:03;;;;;;;19.73;11.55;;;;;;;12.68;86.40;100341.25;1087606;54;20034;-80
2022/10/31 00:58:07;;;;;;;16.52;11.23;;;;;;;12.73;86.02;100336.31;1087613;54;20018;-77
2022/10/31 00:59:08;;;;;;;18.10;10.73;;;;;;;12.70;86.30;100336.59;1087531;54;20041;-78
2022/10/31 01:00:14;;;;;;;18.08;11.35;;;;;;;12.59;86.16;100341.16;1086869;54;20038;-78
2022/10/31 01:01:15;;;;;;;18.85;11.82;;;;;;;12.50;86.85;100349.28;1087604;54;20034;-78
2022/10/31 01:02:19;;;;;;;16.58;10.60;;;;;;;12.44;87.42;100342.69;1087602;54;20057;-78
2022/10/31 01:03:22;;;;;;;16.02;10.63;;;;;;;12.43;87.39;100349.03;1087537;54;20035;-78
2022/10/31 01:04:26;;;;;;;18.60;10.35;;;;;;;12.40;87.79;100342.16;1087560;54;20082;-77
2022/10/31 01:05:27;;;;;;;16.25;11.63;;;;;;;12.40;87.53;100342.16;1087456;54;20057;-78
2022/10/31 01:06:32;;;;;;;20.85;10.88;;;;;;;12.52;86.76;100348.13;1087563;54;20038;-78
2022/10/31 01:07:36;;;;;;;13.85;9.65;;;;;;;12.63;86.17;100339.88;1087467;54;20038;-78
2022/10/31 01:08:40;;;;;;;14.07;9.80;;;;;;;12.70;85.86;100340.13;1087559;54;20030;-79
2022/10/31 01:09:44;;;;;;;13.65;10.50;;;;;;;12.64;85.95;100336.22;1090557;39;20591;-78
2022/10/31 01:10:49;;;;;;;15.05;9.93;;;;;;;12.58;86.24;100336.81;1087458;54;20030;-77
2022/10/31 01:11:50;;;;;;;15.18;9.50;;;;;;;12.51;86.34;100341.09;1087560;54;20030;-79
2022/10/31 01:12:54;;;;;;;15.95;9.88;;;;;;;12.43;86.95;100343.69;1087492;54;20033;-79
2022/10/31 01:13:56;;;;;;;14.75;8.98;;;;;;;12.38;86.94;100340.59;1087489;54;20038;-78
2022/10/31 01:15:00;;;;;;;13.93;9.40;;;;;;;12.46;86.52;100335.34;1087497;54;20035;-78
2022/10/31 01:16:04;;;;;;;14.18;9.95;;;;;;;12.52;86.40;100336.56;1087424;54;20059;-78
2022/10/31 01:17:08;;;;;;;15.38;9.55;;;;;;;12.58;85.86;100338.66;1087567;54;20035;-78
2022/10/31 01:18:09;;;;;;;12.48;8.45;;;;;;;12.55;86.09;100334.44;1087342;54;20046;-78
2022/10/31 01:19:14;;;;;;;13.15;9.43;;;;;;;12.54;85.92;100339.94;1087578;54;20088;-78
2022/10/31 01:20:16;;;;;;;12.20;8.80;;;;;;;12.61;85.94;100341.03;1087571;54;20030;-78
2022/10/31 01:21:22;;;;;;;11.35;8.32;;;;;;;12.72;85.29;100331.94;1087452;54;20097;-78
2022/10/31 01:22:23;;;;;;;13.98;9.32;;;;;;;12.74;84.91;100335.31;1087514;54;20059;-78
2022/10/31 01:23:28;;;;;;;12.27;8.45;;;;;;;12.71;85.43;100335.59;1087510;54;20030;-78
2022/10/31 01:24:29;;;;;;;13.52;9.50;;;;;;;12.64;85.32;100330.00;1087566;54;20023;-78
2022/10/31 01:25:36;;;;;;;14.82;9.60;;;;;;;12.60;85.53;100334.81;1087520;54;20057;-78
2022/10/31 01:26:37;;;;;;;14.55;9.40;;;;;;;12.51;85.80;100338.41;1087797;47;20061;-78
2022/10/31 01:27:42;;;;;;;17.42;10.13;;;;;;;12.42;86.28;100333.94;1089486;31;20721;-79
2022/10/31 01:28:46;;;;;;;19.25;10.82;;;;;;;12.39;86.73;100335.09;1087551;54;20031;-78
2022/10/31 01:29:50;;;;;;;17.52;10.13;;;;;;;12.45;86.27;100336.34;1087512;54;20060;-78
2022/10/31 01:30:52;;;;;;;17.05;10.63;;;;;;;12.45;86.36;100333.66;1087533;54;20049;-77
2022/10/31 01:31:56;;;;;;;22.25;11.48;;;;;;;12.38;86.72;100341.44;1087474;54;20031;-78
2022/10/31 01:32:57;;;;;;;16.80;11.90;;;;;;;12.24;87.58;100340.09;1087403;54;20034;-78
2022/10/31 01:34:02;;;;;;;28.83;12.43;;;;;;;12.19;88.03;100341.53;1087519;54;20042;-78
2022/10/31 01:35:04;;;;;;;20.95;12.23;;;;;;;12.18;88.45;100343.38;1087473;54;20034;-78
2022/10/31 01:36:16;;;;;;;24.52;12.07;;;;;;;12.13;88.85;100340.28;1087461;54;20030;-79
2022/10/31 01:37:18;;;;;;;31.08;13.13;;;;;;;12.11;88.67;100340.44;1087504;54;20461;-78
2022/10/31 01:38:22;;;;;;;40.85;13.57;;;;;;;12.12;88.92;100336.78;1087544;47;20035;-79
2022/10/31 01:39:24;;;;;;;32.28;12.35;;;;;;;12.09;89.03;100330.88;1087490;54;20043;-78
2022/10/31 01:40:32;;;;;;;29.25;12.95;;;;;;;12.09;89.08;100336.25;1087483;54;20058;-78
2022/10/31 01:41:38;;;;;;;21.08;11.38;;;;;;;12.07;89.47;100338.22;1087511;54;20038;-77
2022/10/31 01:42:43;;;;;;;23.73;12.35;;;;;;;12.02;89.34;100331.44;1087446;54;20038;-78
2022/10/31 01:43:47;;;;;;;35.35;11.85;;;;;;;11.98;90.18;100343.47;1087404;54;20049;-79
2022/10/31 01:44:58;;;;;;;28.50;11.13;;;;;;;11.97;90.23;100335.53;1087526;54;20058;-78
2022/10/31 01:46:00;;;;;;;22.35;12.13;;;;;;;11.96;90.19;100339.19;1087557;54;20036;-79
2022/10/31 01:47:10;;;;;;;17.75;11.05;;;;;;;12.00;90.26;100340.63;1087582;54;20038;-78
2022/10/31 01:48:15;;;;;;;19.02;11.48;;;;;;;12.06;89.54;100336.53;1088310;47;20030;-79
2022/10/31 01:49:26;;;;;;;18.05;10.55;;;;;;;12.18;89.33;100340.72;1087971;47;20034;-77
2022/10/31 01:50:32;;;;;;;15.15;9.70;;;;;;;12.30;88.56;100336.81;1087992;47;20042;-78
2022/10/31 01:51:39;;;;;;;14.20;8.85;;;;;;;12.39;88.29;100345.81;1087475;54;20034;-78
2022/10/31 01:52:44;;;;;;;13.13;8.40;;;;;;;12.45;87.56;100334.47;1087788;54;20058;-78
2022/10/31 01:53:49;;;;;;;15.20;8.48;;;;;;;12.53;87.28;100348.97;1087819;54;20034;-78
2022/10/31 01:54:55;;;;;;;15.48;9.98;;;;;;;12.54;87.05;100340.78;1088534;46;20057;-77
2022/10/31 01:55:59;;;;;;;12.98;8.07;;;;;;;12.60;86.84;100334.81;1087708;54;20031;-77
2022/10/31 01:57:08;;;;;;;14.43;8.48;;;;;;;12.64;86.73;100333.53;1087822;54;20037;-78
2022/10/31 01:58:15;;;;;;;13.00;7.63;;;;;;;12.70;86.38;100344.63;1087760;54;20035;-79
2022/10/31 01:59:20;;;;;;;16.20;8.82;;;;;;;12.72;86.43;100346.16;1087818;54;20103;-79
2022/10/31 02:00:25;;;;;;;23.63;8.30;;;;;;;12.73;86.39;100339.81;1087603;54;20699;-78
2022/10/31 02:01:28;;;;;;;17.67;8.90;;;;;;;12.74;85.98;100340.66;1087813;54;20039;-78
2022/10/31 02:02:34;;;;;;;13.32;8.32;;;;;;;12.77;86.03;100340.34;1087812;54;20035;-78
2022/10/31 02:03:36;;;;;;;17.42;8.77;;;;;;;12.73;85.88;100339.81;1087744;54;20038;-78
2022/10/31 02:04:40;;;;;;;17.33;9.70;;;;;;;12.69;85.97;100333.09;1087834;54;20022;-78
2022/10/31 02:05:43;;;;;;;22.15;8.73;;;;;;;12.68;86.08;100336.75;1087716;54;20031;-78
2022/10/31 02:06:52;;;;;;;19.45;9.00;;;;;;;12.70;85.94;100333.91;1087802;54;20074;-78
2022/10/31 02:07:57;;;;;;;16.10;9.50;;;;;;;12.69;85.90;100337.59;1087711;54;20030;-79
2022/10/31 02:09:03;;;;;;;19.58;8.88;;;;;;;12.66;85.97;100330.69;1087831;54;20031;-78
2022/10/31 02:10:05;;;;;;;13.50;7.90;;;;;;;12.67;85.72;100331.53;1087863;54;20057;-78
2022/10/31 02:11:10;;;;;;;16.95;9.07;;;;;;;12.64;85.92;100336.22;1087716;54;20035;-78
2022/10/31 02:12:16;;;;;;;12.70;7.95;;;;;;;12.63;86.08;100336.34;1087800;54;20034;-78
2022/10/31 02:13:22;;;;;;;15.27;8.50;;;;;;;12.62;85.90;100335.53;1087701;54;20030;-78
2022/10/31 02:14:25;;;;;;;13.00;7.88;;;;;;;12.62;85.80;100334.66;1089512;39;20630;-78
2022/10/31 03:01:58;;;;;;;20.05;9.23;;;;;;;12.21;90.07;100335.03;1089214;31;20993;-82
2022/10/31 03:03:13;;;;;;;14.05;8.85;;;;;;;12.25;90.03;100330.22;1088400;46;20026;-82
2022/10/31 03:09:29;;;;;;;16.52;9.40;;;;;;;12.09;91.42;100331.72;1091973;39;20886;-82
2022/10/31 03:10:57;;;;;;;33.15;9.73;;;;;;;12.03;91.77;100329.63;1088043;54;20034;-82
2022/10/31 03:12:07;;;;;;;30.38;9.45;;;;;;;12.05;91.35;100334.84;1087962;54;20035;-82
2022/10/31 03:23:32;;;;;;;;;;;;;;;;;;;;;
2022/10/31 15:12:34;;;;;;;12.43;8.05;;;;;;;18.58;66.60;99864.63;1078831;54;20036;-82
2022/10/31 15:13:57;;;;;;;13.88;8.48;;;;;;;18.37;67.21;99874.50;1087820;54;20021;-82
2022/10/31 15:48:14;;;;;;;11.60;8.10;;;;;;;17.87;69.60;99861.06;1086372;54;20034;-80
2022/10/31 15:49:32;;;;;;;10.82;7.05;;;;;;;17.83;69.48;99861.66;1087145;47;20191;-79
2022/10/31 15:50:55;;;;;;;15.55;7.47;;;;;;;17.77;70.10;99855.19;1089189;39;20448;-80
2022/10/31 15:51:59;;;;;;;13.70;8.63;;;;;;;17.76;70.04;99850.78;1085517;54;20062;-79
2022/10/31 15:53:16;;;;;;;18.17;10.63;;;;;;;17.78;69.87;99851.44;1085080;54;20054;-80
2022/10/31 15:54:54;;;;;;;20.23;11.85;;;;;;;17.73;70.46;99848.50;1086516;54;20042;-80
2022/10/31 15:56:00;;;;;;;19.08;10.65;;;;;;;17.68;70.40;99849.09;1086355;47;20031;-82
2022/10/31 15:57:04;;;;;;;18.80;11.00;;;;;;;17.72;70.61;99852.25;1085896;54;20034;-79
2022/10/31 15:58:13;;;;;;;18.38;10.85;;;;;;;17.75;70.04;99852.69;1087130;47;20042;-84
2022/10/31 17:03:20;;;;;;;15.13;8.98;;;;;;;16.26;77.42;99800.06;1081514;54;20038;-81
2022/10/31 17:04:23;;;;;;;12.48;8.88;;;;;;;16.34;76.55;99791.84;1088480;54;20022;-81
2022/10/31 17:11:03;;;;;;;14.57;8.20;;;;;;;16.49;76.12;99799.09;1086568;54;21572;-79
2022/10/31 17:12:07;;;;;;;12.93;7.57;;;;;;;16.57;75.93;99796.28;1087455;54;20034;-80
2022/10/31 17:13:59;;;;;;;13.88;7.80;;;;;;;16.53;75.86;99792.31;1089631;46;20038;-82
2022/10/31 17:15:11;;;;;;;12.63;7.20;;;;;;;16.56;75.95;99805.41;1088595;54;20079;-84
2022/10/31 17:27:25;;;;;;;;;;;;;;;16.34;76.84;99805.34;1082022;54;20093;-85
2022/10/31 17:37:02;;;;;;;17.60;10.05;;;;;;;16.14;77.76;99821.28;1088100;39;21013;-80
2022/10/31 18:18:27;;;;;;;12.55;10.10;;;;;;;15.81;78.15;99783.91;1089355;39;20918;-81
2022/10/31 18:21:36;;;;;;;11.63;9.63;;;;;;;15.78;78.46;99768.09;1087581;54;20031;-81
2022/10/31 18:22:54;;;;;;;;;;;;;;;;;;;;;
2022/10/31 18:24:04;;;;;;;15.70;10.50;;;;;;;15.82;78.52;99774.75;1087574;54;20034;-80
2022/10/31 18:25:16;;;;;;;15.27;10.77;;;;;;;15.82;78.16;99774.75;1086189;54;20065;-80
2022/10/31 18:26:18;;;;;;;14.93;10.75;;;;;;;15.81;78.36;99770.41;1086389;54;20058;-81
2022/10/31 18:27:28;;;;;;;14.05;11.60;;;;;;;15.83;78.36;99765.66;1085614;54;20034;-81
2022/10/31 18:28:33;;;;;;;13.38;11.10;;;;;;;15.81;78.39;99775.81;1088423;39;20536;-82
2022/10/31 18:29:48;;;;;;;;;;;;;;;;;;;;;
2022/10/31 18:31:09;;;;;;;13.32;9.75;;;;;;;15.79;78.06;99774.31;1086051;54;20041;-81
2022/10/31 18:32:15;;;;;;;16.52;11.00;;;;;;;15.74;78.32;99770.31;1086098;54;20116;-83
2022/10/31 18:33:20;;;;;;;13.88;10.52;;;;;;;15.81;78.40;99772.25;1085582;54;20026;-81
2022/10/31 18:34:27;;;;;;;13.35;10.40;;;;;;;15.80;77.97;99768.75;1087258;54;20078;-82
2022/10/31 18:35:33;;;;;;;14.15;9.82;;;;;;;15.87;77.92;99764.31;1086963;54;20034;-80
2022/10/31 18:42:26;;;;;;;16.27;11.38;;;;;;;15.82;78.00;99758.59;1085739;54;20050;-80
2022/10/31 18:43:27;;;;;;;17.90;12.60;;;;;;;15.71;78.07;99759.91;1085434;54;20069;-80
2022/10/31 18:44:32;;;;;;;23.58;14.70;;;;;;;15.62;78.58;99758.31;1085495;54;20045;-80
2022/10/31 18:45:33;;;;;;;27.40;17.25;;;;;;;15.52;78.83;99760.44;1084977;47;20053;-80
2022/10/31 18:46:38;;;;;;;26.90;17.55;;;;;;;15.43;79.17;99757.00;1085562;54;20042;-80
2022/10/31 18:47:39;;;;;;;23.20;17.15;;;;;;;15.44;79.24;99753.31;1084500;54;20035;-80
2022/10/31 18:48:45;;;;;;;24.95;16.45;;;;;;;15.57;78.67;99748.09;1084374;54;20046;-80
2022/10/31 18:49:49;;;;;;;25.17;16.35;;;;;;;15.51;78.78;99742.59;1084279;54;20039;-79
2022/10/31 18:50:56;;;;;;;22.83;16.55;;;;;;;15.46;79.42;99734.25;1083268;54;20038;-79
2022/10/31 18:51:58;;;;;;;27.55;18.80;;;;;;;15.44;79.21;99727.19;1083576;54;20050;-80
2022/10/31 18:53:02;;;;;;;26.02;18.05;;;;;;;15.35;79.83;99720.22;1083988;54;20536;-80
2022/10/31 18:54:06;;;;;;;26.73;17.45;;;;;;;15.32;79.85;99719.75;1083918;54;20600;-79
2022/10/31 18:55:10;;;;;;;25.15;17.55;;;;;;;15.32;79.77;99717.88;1085122;54;20035;-80
2022/10/31 18:56:16;;;;;;;23.98;16.60;;;;;;;15.34;79.77;99721.22;1085133;54;20038;-80
2022/10/31 18:57:17;;;;;;;21.33;15.32;;;;;;;15.37;79.57;99728.97;1084909;54;20034;-80
2022/10/31 18:58:23;;;;;;;24.20;15.90;;;;;;;15.35;79.44;99728.28;1084519;54;20035;-79
2022/10/31 18:59:27;;;;;;;19.80;14.40;;;;;;;15.19;80.25;99731.16;1085873;54;20042;-80
2022/10/31 19:00:29;;;;;;;21.58;14.95;;;;;;;15.14;80.51;99737.09;1085875;54;20054;-78
2022/10/31 19:01:33;;;;;;;22.58;15.63;;;;;;;15.11;80.65;99729.38;1085415;39;20548;-79
2022/10/31 19:02:42;;;;;;;19.00;14.45;;;;;;;15.18;80.35;99724.09;1087260;54;20019;-81
2022/10/31 19:03:46;;;;;;;17.20;12.80;;;;;;;15.28;79.91;99713.91;1088195;46;20038;-80
2022/10/31 19:04:51;;;;;;;17.55;12.00;;;;;;;15.33;79.83;99719.56;1085661;54;20045;-79
2022/10/31 19:05:57;;;;;;;16.85;12.48;;;;;;;15.35;79.47;99709.44;1083607;54;20038;-79
2022/10/31 19:07:01;;;;;;;17.20;11.95;;;;;;;15.39;79.32;99716.16;1083591;47;20643;-80
2022/10/31 19:08:08;;;;;;;19.08;12.30;;;;;;;15.29;79.87;99726.34;1086766;54;20069;-80
2022/10/31 19:09:23;;;;;;;16.83;12.73;;;;;;;15.22;80.12;99722.69;1087718;54;20086;-81
2022/10/31 19:11:07;;;;;;;21.77;15.02;;;;;;;14.74;82.86;99747.97;1087831;54;20014;-79
2022/10/31 19:12:14;;;;;;;28.48;17.02;;;;;;;14.54;83.83;99768.28;1086178;46;20049;-79
2022/10/31 19:13:45;;;;;;;22.83;16.30;;;;;;;14.57;83.81;99774.16;1086975;54;20030;-79
2022/10/31 19:14:50;;;;;;;25.92;19.52;;;;;;;14.49;83.90;99785.78;1087417;39;20467;-78
2022/10/31 19:15:55;;;;;;;32.28;21.08;;;;;;;14.38;85.12;99791.56;1084715;39;20929;-79
2022/10/31 19:16:56;;;;;;;22.88;18.75;;;;;;;14.41;85.08;99793.91;1084129;54;20545;-78
2022/10/31 19:18:02;;;;;;;25.02;19.23;;;;;;;14.39;85.02;99798.59;1084591;54;20038;-77
2022/10/31 19:19:06;;;;;;;25.77;18.23;;;;;;;14.54;84.14;99776.34;1084646;54;20039;-78
2022/10/31 19:20:12;;;;;;;23.05;16.23;;;;;;;14.71;82.98;99777.09;1085995;46;20045;-79
2022/10/31 19:21:19;;;;;;;20.83;16.17;;;;;;;14.75;82.53;99775.75;1086558;54;20049;-79
2022/10/31 19:22:20;;;;;;;22.35;16.27;;;;;;;14.70;82.88;99772.72;1085971;54;20061;-79
2022/10/31 19:23:24;;;;;;;23.17;16.63;;;;;;;14.63;83.13;99777.97;1085577;54;20038;-79
2022/10/31 19:24:28;;;;;;;25.50;15.90;;;;;;;14.59;83.82;99784.72;1085422;54;20049;-80
2022/10/31 19:25:38;;;;;;;22.13;14.70;;;;;;;14.65;83.60;99790.22;1086070;54;20627;-79
2022/10/31 19:26:42;;;;;;;19.42;13.82;;;;;;;14.55;84.04;99802.25;1086227;54;20038;-80
2022/10/31 19:27:45;;;;;;;20.10;14.77;;;;;;;14.52;84.55;99792.66;1086192;54;20038;-79
2022/10/31 19:28:50;;;;;;;18.17;14.02;;;;;;;14.49;84.92;99788.47;1084975;54;20038;-80
2022/10/31 19:29:51;;;;;;;20.40;14.85;;;;;;;14.57;84.42;99794.81;1085206;54;20041;-79
2022/10/31 19:30:56;;;;;;;19.25;13.45;;;;;;;14.61;83.74;99801.53;1085322;54;20038;-80
2022/10/31 19:32:01;;;;;;;18.38;13.60;;;;;;;14.68;83.57;99797.13;1085651;54;20038;-79
2022/10/31 19:33:02;;;;;;;21.42;14.55;;;;;;;14.65;83.50;99797.44;1085755;31;20524;-79
2022/10/31 19:34:06;;;;;;;22.27;15.10;;;;;;;14.44;84.74;99801.63;1085660;54;20030;-79
2022/10/31 19:35:19;;;;;;;24.23;14.82;;;;;;;14.51;84.59;99802.59;1084378;54;20565;-79
2022/10/31 19:36:21;;;;;;;20.35;13.13;;;;;;;14.51;83.94;99807.09;1085391;54;20133;-81
2022/10/31 19:37:25;;;;;;;21.35;13.27;;;;;;;14.46;84.75;99799.56;1086061;54;20046;-81
2022/10/31 19:38:28;;;;;;;19.85;12.90;;;;;;;14.56;83.93;99812.81;1087058;39;20456;-80
2022/10/31 19:39:32;;;;;;;16.75;11.98;;;;;;;14.62;83.64;99808.59;1084072;54;20038;-80
2022/10/31 19:40:35;;;;;;;20.58;13.35;;;;;;;14.56;83.80;99828.09;1085838;54;20065;-81
2022/10/31 19:41:40;;;;;;;17.48;12.13;;;;;;;14.62;83.73;99830.09;1086508;54;20583;-81
2022/10/31 19:42:50;;;;;;;18.70;12.20;;;;;;;14.54;84.20;99839.03;1086928;47;20049;-80
2022/10/31 19:43:55;;;;;;;16.88;11.90;;;;;;;14.55;83.93;99840.72;1087587;54;20070;-82
2022/10/31 19:44:56;;;;;;;19.70;11.45;;;;;;;14.65;83.67;99829.72;1086888;54;20612;-81
2022/10/31 19:46:02;;;;;;;14.93;11.30;;;;;;;14.75;83.43;99824.19;1084919;54;20046;-79
2022/10/31 19:47:07;;;;;;;15.65;11.13;;;;;;;14.78;83.21;99813.88;1085644;54;20046;-80
2022/10/31 19:48:12;;;;;;;14.90;12.35;;;;;;;14.75;83.22;99818.78;1085800;54;20041;-80
2022/10/31 19:49:17;;;;;;;18.38;12.73;;;;;;;14.77;83.20;99816.78;1086644;47;20073;-81
2022/10/31 19:50:21;;;;;;;17.63;12.85;;;;;;;14.82;83.26;99817.06;1090047;39;20409;-79
2022/10/31 19:51:25;;;;;;;20.02;14.27;;;;;;;14.85;82.78;99816.72;1089144;39;20607;-81
2022/10/31 19:52:27;;;;;;;18.73;13.75;;;;;;;14.87;82.66;99817.38;1085851;54;20042;-80
2022/10/31 19:53:31;;;;;;;18.75;13.10;;;;;;;14.86;82.51;99817.53;1084880;47;20049;-80
2022/10/31 19:54:45;;;;;;;19.13;14.00;;;;;;;14.85;82.82;99832.84;1085475;54;20035;-78
2022/10/31 19:55:47;;;;;;;16.48;12.25;;;;;;;14.90;82.38;99835.00;1086493;54;20038;-81
2022/10/31 19:56:53;;;;;;;16.90;12.20;;;;;;;14.96;82.19;99826.22;1087168;47;20027;-81
2022/10/31 19:57:55;;;;;;;15.93;11.43;;;;;;;14.99;82.28;99828.56;1087089;54;20153;-81
2022/10/31 19:59:18;;;;;;;18.77;12.23;;;;;;;15.01;81.75;99829.22;1087342;54;20034;-80
2022/10/31 20:00:42;;;;;;;15.13;11.63;;;;;;;14.97;81.89;99830.59;1087813;54;20041;-81
2022/10/31 20:02:18;;;;;;;;;;;;;;;;;;;;;
2022/10/31 20:03:21;;;;;;;16.42;11.70;;;;;;;15.00;81.85;99832.94;1088299;54;20015;-80
2022/10/31 20:04:58;;;;;;;;;;;;;;;;;;;;;
2022/10/31 20:06:05;;;;;;;17.13;12.70;;;;;;;14.83;82.76;99829.50;1089324;47;20034;-80
2022/10/31 20:07:10;;;;;;;19.00;12.35;;;;;;;14.89;82.33;99814.50;1088217;54;20022;-80
2022/10/31 20:08:17;;;;;;;22.15;16.10;;;;;;;14.89;82.11;99811.81;1088013;47;20035;-80
2022/10/31 20:09:21;;;;;;;19.25;14.13;;;;;;;14.91;82.20;99796.31;1087934;54;20031;-80
2022/10/31 20:11:11;;;;;;;19.73;15.98;;;;;;;14.80;82.40;99801.09;1087832;47;20034;-80
2022/10/31 20:12:15;;;;;;;18.88;14.27;;;;;;;14.79;82.86;99799.44;1088190;54;20074;-82
2022/10/31 20:13:25;;;;;;;17.48;13.20;;;;;;;14.79;82.67;99799.44;1088193;54;20027;-82
2022/10/31 20:14:29;;;;;;;22.08;15.57;;;;;;;14.70;82.95;99792.41;1088096;54;20082;-81
2022/10/31 20:19:20;;;;;;;23.45;16.73;;;;;;;14.32;85.73;99776.13;1087566;47;20019;-80
2022/10/31 20:20:28;;;;;;;23.38;16.17;;;;;;;14.32;85.70;99787.72;1087591;54;20038;-81
2022/10/31 20:21:45;;;;;;;21.55;14.93;;;;;;;14.36;85.80;99780.13;1087822;47;20035;-81
2022/10/31 20:23:13;;;;;;;19.02;14.02;;;;;;;14.41;85.13;99803.81;1087134;54;20011;-80
2022/10/31 20:24:19;;;;;;;18.85;13.10;;;;;;;14.45;84.70;99789.00;1086503;54;20043;-80
2022/10/31 20:25:24;;;;;;;20.17;13.65;;;;;;;14.45;84.45;99789.00;1087522;54;20063;-83
2022/10/31 20:26:32;;;;;;;17.27;13.02;;;;;;;14.47;84.58;99797.75;1088057;54;20845;-81
2022/10/31 20:28:02;;;;;;;22.75;14.93;;;;;;;14.22;85.80;99822.03;1086744;54;20038;-80
2022/10/31 20:29:18;;;;;;;24.85;15.75;;;;;;;14.11;86.72;99828.63;1087050;54;20034;-82
2022/10/31 20:30:22;;;;;;;21.88;16.10;;;;;;;14.17;86.97;99827.09;1087593;54;20022;-82
2022/10/31 20:31:47;;;;;;;22.70;14.52;;;;;;;14.32;85.56;99821.84;1086455;54;20055;-80
2022/10/31 20:32:51;;;;;;;19.95;14.45;;;;;;;14.40;85.23;99821.81;1086257;46;20695;-80
2022/10/31 20:33:54;;;;;;;20.35;13.93;;;;;;;14.46;84.68;99825.66;1084426;54;20067;-79
2022/10/31 20:34:59;;;;;;;19.40;12.45;;;;;;;14.54;84.24;99824.78;1085974;46;20053;-81
2022/10/31 20:36:07;;;;;;;16.35;13.23;;;;;;;14.56;84.10;99839.72;1085765;54;20046;-81
2022/10/31 20:37:16;;;;;;;17.40;12.55;;;;;;;14.62;83.66;99832.78;1086505;54;20607;-82
2022/10/31 20:38:33;;;;;;;;;;;;;;;;;;;;;
2022/10/31 20:39:41;;;;;;;18.77;12.32;;;;;;;14.65;83.49;99813.59;1088938;46;20011;-81
2022/10/31 20:40:48;;;;;;;15.32;12.10;;;;;;;14.64;83.43;99815.44;1085421;54;20039;-82
2022/10/31 20:42:04;;;;;;;;;;;;;;;;;;;;;
2022/10/31 20:43:14;;;;;;;13.68;11.35;;;;;;;14.66;83.08;99816.16;1085231;54;20035;-79
2022/10/31 21:46:47;;;;;;;15.13;11.57;;;;;;;14.13;84.39;99852.63;1085903;54;20089;-81
2022/10/31 21:47:56;;;;;;;15.43;11.15;;;;;;;14.15;84.36;99856.84;1086048;54;20034;-80
2022/10/31 21:49:07;;;;;;;16.92;13.00;;;;;;;14.12;84.66;99857.19;1087070;54;20050;-81
2022/10/31 21:50:23;;;;;;;;;;;;;;;13.97;84.68;99851.69;1087994;54;20572;-82
2022/10/31 21:51:30;;;;;;;16.75;11.95;;;;;;;14.03;85.09;99850.16;1089109;46;19938;-81
2022/10/31 21:52:32;;;;;;;14.60;11.40;;;;;;;14.08;85.08;99850.47;1087432;54;20046;-79
2022/10/31 21:55:19;;;;;;;15.50;11.05;;;;;;;14.05;85.06;99856.22;1085889;54;20030;-79
2022/10/31 21:56:27;;;;;;;15.13;11.75;;;;;;;14.11;84.72;99852.00;1086766;54;20046;-81
2022/10/31 21:57:35;;;;;;;14.02;10.40;;;;;;;14.16;84.44;99839.72;1087070;54;20589;-81
2022/10/31 21:58:38;;;;;;;15.95;10.98;;;;;;;14.11;84.36;99842.06;1087781;54;20022;-82
2022/10/31 22:00:09;;;;;;;15.45;11.60;;;;;;;14.10;84.13;99843.09;1087517;54;20041;-82